sensor_id;sensor_type;location;lat;lon;timestamp;pressure;altitude;pressure_sealevel;temperature;humidity
9462;BME280;4769;42.660;23.262;2023-07-13T00:01:07;94264.50;;;27.17;46.25
9462;BME280;4769;42.660;23.262;2023-07-13T00:03:32;94258.09;;;27.34;46.22
9462;BME280;4769;42.660;23.262;2023-07-13T00:05:59;94264.06;;;27.15;47.66
9462;BME280;4769;42.660;23.262;2023-07-13T00:08:25;94252.88;;;26.69;46.95
9462;BME280;4769;42.660;23.262;2023-07-13T00:10:51;94260.06;;;26.08;48.70
9462;BME280;4769;42.660;23.262;2023-07-13T00:13:17;94254.47;;;25.72;49.14
9462;BME280;4769;42.660;23.262;2023-07-13T00:15:45;94255.53;;;25.59;50.37
9462;BME280;4769;42.660;23.262;2023-07-13T00:18:11;94245.84;;;25.58;49.34
9462;BME280;4769;42.660;23.262;2023-07-13T00:20:37;94250.59;;;25.41;50.01
9462;BME280;4769;42.660;23.262;2023-07-13T00:23:03;94244.84;;;25.13;52.48
9462;BME280;4769;42.660;23.262;2023-07-13T00:25:28;94247.09;;;25.11;53.10
9462;BME280;4769;42.660;23.262;2023-07-13T00:27:54;94245.47;;;25.19;51.77
9462;BME280;4769;42.660;23.262;2023-07-13T00:30:20;94243.41;;;25.16;50.78
9462;BME280;4769;42.660;23.262;2023-07-13T00:32:49;94237.81;;;25.21;52.03
9462;BME280;4769;42.660;23.262;2023-07-13T00:35:15;94241.72;;;25.11;52.32
9462;BME280;4769;42.660;23.262;2023-07-13T00:37:41;94233.88;;;24.89;53.49
9462;BME280;4769;42.660;23.262;2023-07-13T00:40:09;94240.16;;;25.02;53.12
9462;BME280;4769;42.660;23.262;2023-07-13T00:42:35;94237.63;;;25.26;53.66
9462;BME280;4769;42.660;23.262;2023-07-13T00:45:03;94243.88;;;25.67;52.89
9462;BME280;4769;42.660;23.262;2023-07-13T00:47:29;94238.97;;;26.02;51.73
9462;BME280;4769;42.660;23.262;2023-07-13T00:49:58;94247.47;;;26.24;52.01
9462;BME280;4769;42.660;23.262;2023-07-13T00:52:24;94247.94;;;26.26;52.34
9462;BME280;4769;42.660;23.262;2023-07-13T00:54:50;94232.63;;;26.30;51.99
9462;BME280;4769;42.660;23.262;2023-07-13T00:57:18;94247.63;;;26.40;52.79
9462;BME280;4769;42.660;23.262;2023-07-13T00:59:48;94248.06;;;26.42;52.85
9462;BME280;4769;42.660;23.262;2023-07-13T01:02:15;94244.81;;;26.36;52.87
9462;BME280;4769;42.660;23.262;2023-07-13T01:04:41;94234.56;;;26.30;52.68
9462;BME280;4769;42.660;23.262;2023-07-13T01:07:09;94244.16;;;26.51;52.18
9462;BME280;4769;42.660;23.262;2023-07-13T01:09:36;94241.06;;;26.61;51.95
9462;BME280;4769;42.660;23.262;2023-07-13T01:12:02;94238.97;;;26.46;51.72
9462;BME280;4769;42.660;23.262;2023-07-13T01:14:28;94228.44;;;26.21;52.82
9462;BME280;4769;42.660;23.262;2023-07-13T01:16:54;94238.78;;;26.19;52.04
9462;BME280;4769;42.660;23.262;2023-07-13T01:19:28;94243.28;;;25.62;54.72
9462;BME280;4769;42.660;23.262;2023-07-13T01:21:59;94247.00;;;25.69;54.89
9462;BME280;4769;42.660;23.262;2023-07-13T01:24:25;94236.22;;;25.69;55.08
9462;BME280;4769;42.660;23.262;2023-07-13T01:26:51;94233.25;;;25.62;55.18
9462;BME280;4769;42.660;23.262;2023-07-13T01:29:16;94225.94;;;25.63;55.12
9462;BME280;4769;42.660;23.262;2023-07-13T01:31:42;94226.81;;;25.55;55.01
9462;BME280;4769;42.660;23.262;2023-07-13T01:34:08;94227.34;;;25.48;54.64
9462;BME280;4769;42.660;23.262;2023-07-13T01:36:33;94222.97;;;24.86;55.99
9462;BME280;4769;42.660;23.262;2023-07-13T01:39:02;94223.03;;;24.98;56.18
9462;BME280;4769;42.660;23.262;2023-07-13T01:41:27;94216.75;;;25.14;56.43
9462;BME280;4769;42.660;23.262;2023-07-13T01:43:53;94220.75;;;25.37;56.45
9462;BME280;4769;42.660;23.262;2023-07-13T01:46:19;94229.25;;;25.48;56.23
9462;BME280;4769;42.660;23.262;2023-07-13T01:48:44;94223.22;;;25.63;56.28
9462;BME280;4769;42.660;23.262;2023-07-13T01:51:10;94219.03;;;25.74;55.89
9462;BME280;4769;42.660;23.262;2023-07-13T01:53:36;94215.31;;;25.78;56.14
9462;BME280;4769;42.660;23.262;2023-07-13T01:56:04;94222.66;;;25.78;55.98
9462;BME280;4769;42.660;23.262;2023-07-13T01:58:30;94220.84;;;25.82;55.98
9462;BME280;4769;42.660;23.262;2023-07-13T02:00:56;94222.28;;;25.79;56.70
9462;BME280;4769;42.660;23.262;2023-07-13T02:03:21;94224.22;;;25.79;57.25
9462;BME280;4769;42.660;23.262;2023-07-13T02:05:47;94226.97;;;25.70;56.99
9462;BME280;4769;42.660;23.262;2023-07-13T02:08:13;94235.47;;;25.81;56.53
9462;BME280;4769;42.660;23.262;2023-07-13T02:10:38;94241.16;;;25.88;55.64
9462;BME280;4769;42.660;23.262;2023-07-13T02:13:07;94246.81;;;25.95;55.48
9462;BME280;4769;42.660;23.262;2023-07-13T02:15:33;94240.34;;;26.08;55.08
9462;BME280;4769;42.660;23.262;2023-07-13T02:17:59;94240.22;;;26.04;55.20
9462;BME280;4769;42.660;23.262;2023-07-13T02:20:25;94245.69;;;25.96;55.89
9462;BME280;4769;42.660;23.262;2023-07-13T02:22:50;94244.94;;;26.07;55.29
9462;BME280;4769;42.660;23.262;2023-07-13T02:25:16;94237.53;;;26.04;55.76
9462;BME280;4769;42.660;23.262;2023-07-13T02:27:42;94244.78;;;25.92;56.59
9462;BME280;4769;42.660;23.262;2023-07-13T02:30:11;94242.66;;;25.77;57.02
9462;BME280;4769;42.660;23.262;2023-07-13T02:32:36;94249.66;;;25.78;57.00
9462;BME280;4769;42.660;23.262;2023-07-13T02:35:02;94242.41;;;25.70;57.29
9462;BME280;4769;42.660;23.262;2023-07-13T02:37:28;94234.63;;;25.68;58.17
9462;BME280;4769;42.660;23.262;2023-07-13T02:39:54;94243.16;;;25.58;58.75
9462;BME280;4769;42.660;23.262;2023-07-13T02:42:20;94236.91;;;25.46;58.76
9462;BME280;4769;42.660;23.262;2023-07-13T02:44:45;94237.16;;;25.53;58.94
9462;BME280;4769;42.660;23.262;2023-07-13T02:47:14;94239.25;;;25.68;58.99
9462;BME280;4769;42.660;23.262;2023-07-13T02:49:39;94249.28;;;25.47;58.98
9462;BME280;4769;42.660;23.262;2023-07-13T02:52:05;94241.97;;;25.27;59.96
9462;BME280;4769;42.660;23.262;2023-07-13T02:54:31;94244.78;;;25.30;60.17
9462;BME280;4769;42.660;23.262;2023-07-13T02:56:57;94242.69;;;25.36;60.03
9462;BME280;4769;42.660;23.262;2023-07-13T02:59:23;94242.13;;;25.22;60.29
9462;BME280;4769;42.660;23.262;2023-07-13T03:01:48;94243.34;;;25.33;60.53
9462;BME280;4769;42.660;23.262;2023-07-13T03:04:17;94248.63;;;25.29;60.01
9462;BME280;4769;42.660;23.262;2023-07-13T03:06:43;94249.75;;;25.20;60.70
9462;BME280;4769;42.660;23.262;2023-07-13T03:09:09;94254.47;;;25.31;60.96
9462;BME280;4769;42.660;23.262;2023-07-13T03:11:34;94253.53;;;25.48;60.66
9462;BME280;4769;42.660;23.262;2023-07-13T03:14:00;94253.47;;;25.56;59.77
9462;BME280;4769;42.660;23.262;2023-07-13T03:16:26;94253.47;;;25.77;59.08
9462;BME280;4769;42.660;23.262;2023-07-13T03:18:51;94251.47;;;25.86;59.33
9462;BME280;4769;42.660;23.262;2023-07-13T03:21:20;94259.72;;;25.89;59.28
9462;BME280;4769;42.660;23.262;2023-07-13T03:23:46;94258.44;;;25.95;58.93
9462;BME280;4769;42.660;23.262;2023-07-13T03:26:16;94256.16;;;25.97;59.01
9462;BME280;4769;42.660;23.262;2023-07-13T03:28:42;94247.31;;;25.88;59.11
9462;BME280;4769;42.660;23.262;2023-07-13T03:31:10;94256.88;;;25.86;59.36
9462;BME280;4769;42.660;23.262;2023-07-13T03:33:37;94257.81;;;25.90;59.40
9462;BME280;4769;42.660;23.262;2023-07-13T03:36:03;94252.50;;;26.02;58.90
9462;BME280;4769;42.660;23.262;2023-07-13T03:38:32;94265.72;;;25.54;62.09
9462;BME280;4769;42.660;23.262;2023-07-13T03:40:57;94269.25;;;25.25;63.31
9462;BME280;4769;42.660;23.262;2023-07-13T03:43:23;94255.59;;;25.51;62.29
9462;BME280;4769;42.660;23.262;2023-07-13T03:45:49;94256.69;;;25.70;61.41
9462;BME280;4769;42.660;23.262;2023-07-13T03:48:15;94262.44;;;25.89;61.72
9462;BME280;4769;42.660;23.262;2023-07-13T03:50:41;94262.06;;;25.99;61.68
9462;BME280;4769;42.660;23.262;2023-07-13T03:53:06;94262.88;;;26.12;61.66
9462;BME280;4769;42.660;23.262;2023-07-13T03:55:35;94259.75;;;26.22;61.86
9462;BME280;4769;42.660;23.262;2023-07-13T03:58:28;94256.88;;;25.65;63.11
9462;BME280;4769;42.660;23.262;2023-07-13T04:00:55;94263.94;;;25.58;63.66
9462;BME280;4769;42.660;23.262;2023-07-13T04:03:21;94263.22;;;25.49;64.00
9462;BME280;4769;42.660;23.262;2023-07-13T04:05:46;94262.13;;;25.50;63.50
9462;BME280;4769;42.660;23.262;2023-07-13T04:08:12;94259.59;;;25.45;63.04
9462;BME280;4769;42.660;23.262;2023-07-13T04:10:40;94257.09;;;25.40;63.67
9462;BME280;4769;42.660;23.262;2023-07-13T04:13:06;94261.31;;;25.49;63.73
9462;BME280;4769;42.660;23.262;2023-07-13T04:15:32;94262.78;;;25.67;62.98
9462;BME280;4769;42.660;23.262;2023-07-13T04:17:58;94251.88;;;25.76;62.94
9462;BME280;4769;42.660;23.262;2023-07-13T04:20:24;94252.59;;;25.85;63.05
9462;BME280;4769;42.660;23.262;2023-07-13T04:22:50;94256.88;;;25.65;64.52
9462;BME280;4769;42.660;23.262;2023-07-13T04:25:16;94265.19;;;25.60;64.86
9462;BME280;4769;42.660;23.262;2023-07-13T04:27:44;94266.00;;;25.61;65.14
9462;BME280;4769;42.660;23.262;2023-07-13T04:30:10;94273.97;;;25.37;66.52
9462;BME280;4769;42.660;23.262;2023-07-13T04:32:36;94268.22;;;25.09;67.48
9462;BME280;4769;42.660;23.262;2023-07-13T04:35:01;94272.41;;;25.27;66.47
9462;BME280;4769;42.660;23.262;2023-07-13T04:37:27;94272.03;;;25.08;68.28
9462;BME280;4769;42.660;23.262;2023-07-13T04:39:53;94289.03;;;25.09;68.37
9462;BME280;4769;42.660;23.262;2023-07-13T04:42:19;94284.28;;;25.35;67.72
9462;BME280;4769;42.660;23.262;2023-07-13T04:44:50;94286.03;;;25.60;66.24
9462;BME280;4769;42.660;23.262;2023-07-13T04:47:17;94288.53;;;25.65;65.96
9462;BME280;4769;42.660;23.262;2023-07-13T04:49:43;94293.66;;;25.78;65.51
9462;BME280;4769;42.660;23.262;2023-07-13T04:52:08;94292.72;;;25.74;66.06
9462;BME280;4769;42.660;23.262;2023-07-13T04:54:34;94293.56;;;25.87;66.03
9462;BME280;4769;42.660;23.262;2023-07-13T04:57:00;94302.09;;;25.97;65.60
9462;BME280;4769;42.660;23.262;2023-07-13T04:59:26;94300.94;;;26.07;64.32
9462;BME280;4769;42.660;23.262;2023-07-13T05:01:55;94296.16;;;26.04;64.45
9462;BME280;4769;42.660;23.262;2023-07-13T05:04:20;94300.91;;;25.66;65.78
9462;BME280;4769;42.660;23.262;2023-07-13T05:06:46;94300.50;;;25.76;66.52
9462;BME280;4769;42.660;23.262;2023-07-13T05:09:12;94298.66;;;25.68;67.13
9462;BME280;4769;42.660;23.262;2023-07-13T05:11:37;94296.44;;;25.70;66.23
9462;BME280;4769;42.660;23.262;2023-07-13T05:14:03;94295.63;;;25.69;67.34
9462;BME280;4769;42.660;23.262;2023-07-13T05:16:32;94301.63;;;25.54;67.28
9462;BME280;4769;42.660;23.262;2023-07-13T05:19:00;94309.81;;;25.37;69.50
9462;BME280;4769;42.660;23.262;2023-07-13T05:21:26;94312.25;;;25.80;68.67
9462;BME280;4769;42.660;23.262;2023-07-13T05:23:52;94300.19;;;25.77;68.78
9462;BME280;4769;42.660;23.262;2023-07-13T05:26:17;94308.09;;;26.23;67.11
9462;BME280;4769;42.660;23.262;2023-07-13T05:28:44;94311.16;;;26.34;67.53
9462;BME280;4769;42.660;23.262;2023-07-13T05:31:10;94312.63;;;26.31;67.72
9462;BME280;4769;42.660;23.262;2023-07-13T05:33:35;94310.28;;;26.42;67.19
9462;BME280;4769;42.660;23.262;2023-07-13T05:36:04;94315.22;;;26.72;65.94
9462;BME280;4769;42.660;23.262;2023-07-13T05:38:30;94312.66;;;26.88;64.71
9462;BME280;4769;42.660;23.262;2023-07-13T05:40:56;94316.25;;;26.80;65.45
9462;BME280;4769;42.660;23.262;2023-07-13T05:43:22;94316.72;;;26.94;64.39
9462;BME280;4769;42.660;23.262;2023-07-13T05:45:49;94320.59;;;27.29;63.78
9462;BME280;4769;42.660;23.262;2023-07-13T05:48:16;94306.84;;;27.22;62.26
9462;BME280;4769;42.660;23.262;2023-07-13T05:50:42;94320.25;;;27.18;62.00
9462;BME280;4769;42.660;23.262;2023-07-13T05:53:12;94324.22;;;27.33;61.71
9462;BME280;4769;42.660;23.262;2023-07-13T05:55:41;94314.47;;;27.68;59.84
9462;BME280;4769;42.660;23.262;2023-07-13T05:58:07;94314.31;;;28.00;58.12
9462;BME280;4769;42.660;23.262;2023-07-13T06:00:32;94312.25;;;28.09;57.82
9462;BME280;4769;42.660;23.262;2023-07-13T06:02:58;94291.22;;;28.18;58.00
9462;BME280;4769;42.660;23.262;2023-07-13T06:05:24;94297.38;;;28.31;57.35
9462;BME280;4769;42.660;23.262;2023-07-13T06:07:49;94301.22;;;28.30;58.85
9462;BME280;4769;42.660;23.262;2023-07-13T06:10:18;94299.41;;;28.34;58.60
9462;BME280;4769;42.660;23.262;2023-07-13T06:12:43;94298.94;;;28.32;59.35
9462;BME280;4769;42.660;23.262;2023-07-13T06:15:09;94310.59;;;28.32;59.56
9462;BME280;4769;42.660;23.262;2023-07-13T06:17:35;94324.41;;;28.55;58.81
9462;BME280;4769;42.660;23.262;2023-07-13T06:20:01;94314.81;;;28.73;57.50
9462;BME280;4769;42.660;23.262;2023-07-13T06:22:27;94319.22;;;29.08;56.96
9462;BME280;4769;42.660;23.262;2023-07-13T06:24:53;94313.63;;;29.17;56.74
9462;BME280;4769;42.660;23.262;2023-07-13T06:27:21;94313.88;;;29.43;55.95
9462;BME280;4769;42.660;23.262;2023-07-13T06:29:47;94318.56;;;29.77;55.28
9462;BME280;4769;42.660;23.262;2023-07-13T06:32:12;94317.47;;;29.62;54.99
9462;BME280;4769;42.660;23.262;2023-07-13T06:34:38;94308.78;;;29.41;54.10
9462;BME280;4769;42.660;23.262;2023-07-13T06:37:04;94315.38;;;29.25;54.62
9462;BME280;4769;42.660;23.262;2023-07-13T06:39:30;94308.50;;;29.46;54.45
9462;BME280;4769;42.660;23.262;2023-07-13T06:41:55;94312.91;;;29.35;54.60
9462;BME280;4769;42.660;23.262;2023-07-13T06:44:24;94312.75;;;29.78;53.69
9462;BME280;4769;42.660;23.262;2023-07-13T06:46:49;94306.69;;;30.19;52.15
9462;BME280;4769;42.660;23.262;2023-07-13T06:49:15;94305.53;;;30.20;51.08
9462;BME280;4769;42.660;23.262;2023-07-13T06:51:41;94302.88;;;30.24;49.54
9462;BME280;4769;42.660;23.262;2023-07-13T06:54:06;94310.78;;;30.48;49.08
9462;BME280;4769;42.660;23.262;2023-07-13T06:56:32;94306.31;;;30.40;48.43
9462;BME280;4769;42.660;23.262;2023-07-13T06:58:58;94305.84;;;30.57;48.97
9462;BME280;4769;42.660;23.262;2023-07-13T07:01:26;94299.22;;;30.73;48.44
9462;BME280;4769;42.660;23.262;2023-07-13T07:03:52;94302.38;;;30.98;46.91
9462;BME280;4769;42.660;23.262;2023-07-13T07:06:20;94304.13;;;31.09;45.36
9462;BME280;4769;42.660;23.262;2023-07-13T07:08:46;94309.09;;;30.62;46.92
9462;BME280;4769;42.660;23.262;2023-07-13T07:11:13;94314.09;;;30.79;46.95
9462;BME280;4769;42.660;23.262;2023-07-13T07:13:40;94305.88;;;30.76;46.50
9462;BME280;4769;42.660;23.262;2023-07-13T07:16:05;94299.72;;;31.01;45.36
9462;BME280;4769;42.660;23.262;2023-07-13T07:18:34;94299.06;;;31.30;45.21
9462;BME280;4769;42.660;23.262;2023-07-13T07:21:00;94310.69;;;31.76;44.50
9462;BME280;4769;42.660;23.262;2023-07-13T07:23:26;94304.69;;;31.93;44.49
9462;BME280;4769;42.660;23.262;2023-07-13T07:25:51;94301.50;;;32.17;44.17
9462;BME280;4769;42.660;23.262;2023-07-13T07:28:17;94295.97;;;32.40;43.15
9462;BME280;4769;42.660;23.262;2023-07-13T07:30:43;94291.28;;;32.40;42.80
9462;BME280;4769;42.660;23.262;2023-07-13T07:33:09;94298.53;;;32.62;42.51
9462;BME280;4769;42.660;23.262;2023-07-13T07:35:37;94302.22;;;32.40;42.83
9462;BME280;4769;42.660;23.262;2023-07-13T07:38:03;94287.22;;;32.60;42.43
9462;BME280;4769;42.660;23.262;2023-07-13T07:40:29;94294.41;;;32.75;42.06
9462;BME280;4769;42.660;23.262;2023-07-13T07:42:55;94284.56;;;33.04;41.58
9462;BME280;4769;42.660;23.262;2023-07-13T07:45:21;94282.75;;;33.18;41.29
9462;BME280;4769;42.660;23.262;2023-07-13T07:47:47;94276.59;;;33.28;41.61
9462;BME280;4769;42.660;23.262;2023-07-13T07:50:13;94279.41;;;33.39;41.49
9462;BME280;4769;42.660;23.262;2023-07-13T07:52:41;94274.03;;;33.53;40.77
9462;BME280;4769;42.660;23.262;2023-07-13T07:55:07;94280.53;;;33.81;41.13
9462;BME280;4769;42.660;23.262;2023-07-13T07:57:33;94273.00;;;33.68;41.46
9462;BME280;4769;42.660;23.262;2023-07-13T07:59:59;94263.97;;;33.64;41.41
9462;BME280;4769;42.660;23.262;2023-07-13T08:02:25;94270.00;;;33.87;41.01
9462;BME280;4769;42.660;23.262;2023-07-13T08:04:51;94256.34;;;33.90;41.33
9462;BME280;4769;42.660;23.262;2023-07-13T08:07:16;94256.47;;;34.11;40.99
9462;BME280;4769;42.660;23.262;2023-07-13T08:09:45;94249.53;;;34.38;40.40
9462;BME280;4769;42.660;23.262;2023-07-13T08:12:11;94236.66;;;34.56;39.81
9462;BME280;4769;42.660;23.262;2023-07-13T08:14:37;94239.44;;;34.70;39.80
9462;BME280;4769;42.660;23.262;2023-07-13T08:17:02;94245.38;;;34.90;39.15
9462;BME280;4769;42.660;23.262;2023-07-13T08:19:29;94240.28;;;35.02;38.77
9462;BME280;4769;42.660;23.262;2023-07-13T08:21:55;94233.66;;;35.28;37.83
9462;BME280;4769;42.660;23.262;2023-07-13T08:24:22;94231.28;;;34.84;38.69
9462;BME280;4769;42.660;23.262;2023-07-13T08:26:50;94244.97;;;34.81;38.84
9462;BME280;4769;42.660;23.262;2023-07-13T08:29:16;94239.13;;;35.03;38.73
9462;BME280;4769;42.660;23.262;2023-07-13T08:31:41;94236.38;;;35.24;37.86
9462;BME280;4769;42.660;23.262;2023-07-13T08:34:07;94244.19;;;35.64;36.86
9462;BME280;4769;42.660;23.262;2023-07-13T08:36:33;94231.28;;;35.58;36.97
9462;BME280;4769;42.660;23.262;2023-07-13T08:38:58;94230.88;;;35.66;37.29
9462;BME280;4769;42.660;23.262;2023-07-13T08:41:24;94230.88;;;35.80;37.40
9462;BME280;4769;42.660;23.262;2023-07-13T08:43:57;94226.06;;;36.12;36.17
9462;BME280;4769;42.660;23.262;2023-07-13T08:46:26;94226.47;;;36.04;36.06
9462;BME280;4769;42.660;23.262;2023-07-13T08:48:56;94220.09;;;36.42;35.35
9462;BME280;4769;42.660;23.262;2023-07-13T08:51:38;94221.91;;;36.62;35.28
9462;BME280;4769;42.660;23.262;2023-07-13T08:54:12;94215.63;;;36.72;34.36
9462;BME280;4769;42.660;23.262;2023-07-13T08:56:44;94227.34;;;36.76;34.49
9462;BME280;4769;42.660;23.262;2023-07-13T08:59:16;94228.16;;;36.73;33.79
9462;BME280;4769;42.660;23.262;2023-07-13T09:01:52;94238.69;;;36.85;33.50
9462;BME280;4769;42.660;23.262;2023-07-13T09:04:24;94239.91;;;36.81;33.49
9462;BME280;4769;42.660;23.262;2023-07-13T09:06:59;94239.16;;;37.31;32.48
9462;BME280;4769;42.660;23.262;2023-07-13T09:09:33;94256.69;;;37.51;32.55
9462;BME280;4769;42.660;23.262;2023-07-13T09:12:09;94252.09;;;36.80;31.99
9462;BME280;4769;42.660;23.262;2023-07-13T09:14:47;94252.34;;;36.96;31.95
9462;BME280;4769;42.660;23.262;2023-07-13T09:17:18;94251.81;;;37.22;30.50
9462;BME280;4769;42.660;23.262;2023-07-13T09:19:48;94262.09;;;37.07;31.46
9462;BME280;4769;42.660;23.262;2023-07-13T09:22:19;94252.56;;;36.57;30.55
9462;BME280;4769;42.660;23.262;2023-07-13T09:24:53;94254.72;;;35.97;32.16
9462;BME280;4769;42.660;23.262;2023-07-13T09:27:22;94253.75;;;36.56;32.66
9462;BME280;4769;42.660;23.262;2023-07-13T09:30:22;94255.31;;;37.26;31.95
9462;BME280;4769;42.660;23.262;2023-07-13T09:32:51;94251.47;;;37.60;29.96
9462;BME280;4769;42.660;23.262;2023-07-13T09:35:20;94254.94;;;37.24;30.37
9462;BME280;4769;42.660;23.262;2023-07-13T09:37:47;94240.63;;;37.83;30.20
9462;BME280;4769;42.660;23.262;2023-07-13T09:40:20;94241.72;;;38.30;30.38
9462;BME280;4769;42.660;23.262;2023-07-13T09:42:47;94244.19;;;38.21;30.33
9462;BME280;4769;42.660;23.262;2023-07-13T09:45:17;94244.63;;;38.53;28.95
9462;BME280;4769;42.660;23.262;2023-07-13T09:47:59;94228.84;;;38.53;28.90
9462;BME280;4769;42.660;23.262;2023-07-13T09:50:25;94234.97;;;37.97;29.59
9462;BME280;4769;42.660;23.262;2023-07-13T09:52:51;94237.28;;;38.06;25.25
9462;BME280;4769;42.660;23.262;2023-07-13T09:55:24;94237.72;;;36.44;24.59
9462;BME280;4769;42.660;23.262;2023-07-13T09:57:51;94226.84;;;36.23;26.08
9462;BME280;4769;42.660;23.262;2023-07-13T10:00:25;94224.50;;;36.08;24.45
9462;BME280;4769;42.660;23.262;2023-07-13T10:03:03;94220.31;;;35.51;24.42
9462;BME280;4769;42.660;23.262;2023-07-13T10:05:37;94214.47;;;35.42;23.80
9462;BME280;4769;42.660;23.262;2023-07-13T10:08:03;94214.47;;;35.38;25.25
9462;BME280;4769;42.660;23.262;2023-07-13T10:10:29;94201.94;;;35.34;25.41
9462;BME280;4769;42.660;23.262;2023-07-13T10:12:54;94196.44;;;35.13;25.50
9462;BME280;4769;42.660;23.262;2023-07-13T10:15:24;94196.81;;;35.43;25.28
9462;BME280;4769;42.660;23.262;2023-07-13T10:17:51;94205.41;;;35.55;24.98
9462;BME280;4769;42.660;23.262;2023-07-13T10:20:17;94202.66;;;35.62;24.79
9462;BME280;4769;42.660;23.262;2023-07-13T10:22:45;94219.50;;;35.64;24.03
9462;BME280;4769;42.660;23.262;2023-07-13T10:25:18;94209.72;;;35.77;24.47
9462;BME280;4769;42.660;23.262;2023-07-13T10:27:45;94205.38;;;35.83;25.01
9462;BME280;4769;42.660;23.262;2023-07-13T10:30:15;94205.03;;;35.74;25.53
9462;BME280;4769;42.660;23.262;2023-07-13T10:32:46;94209.28;;;35.82;24.20
9462;BME280;4769;42.660;23.262;2023-07-13T10:35:14;94201.75;;;36.11;24.53
9462;BME280;4769;42.660;23.262;2023-07-13T10:37:45;94202.53;;;36.11;25.61
9462;BME280;4769;42.660;23.262;2023-07-13T10:40:15;94190.66;;;36.39;25.28
9462;BME280;4769;42.660;23.262;2023-07-13T10:42:45;94197.06;;;36.08;24.43
9462;BME280;4769;42.660;23.262;2023-07-13T10:45:14;94182.19;;;36.02;24.91
9462;BME280;4769;42.660;23.262;2023-07-13T10:47:41;94184.44;;;36.24;24.65
9462;BME280;4769;42.660;23.262;2023-07-13T10:50:15;94174.28;;;36.21;24.87
9462;BME280;4769;42.660;23.262;2023-07-13T10:52:46;94165.03;;;36.59;24.63
9462;BME280;4769;42.660;23.262;2023-07-13T10:55:30;94172.16;;;37.11;24.13
9462;BME280;4769;42.660;23.262;2023-07-13T10:58:00;94174.09;;;36.53;23.73
9462;BME280;4769;42.660;23.262;2023-07-13T11:00:26;94175.19;;;36.69;23.92
9462;BME280;4769;42.660;23.262;2023-07-13T11:02:56;94155.91;;;36.73;23.62
9462;BME280;4769;42.660;23.262;2023-07-13T11:05:30;94159.63;;;37.00;24.84
9462;BME280;4769;42.660;23.262;2023-07-13T11:08:03;94157.63;;;37.51;24.83
9462;BME280;4769;42.660;23.262;2023-07-13T11:10:49;94142.25;;;37.17;24.44
9462;BME280;4769;42.660;23.262;2023-07-13T11:13:36;94146.22;;;36.54;24.27
9462;BME280;4769;42.660;23.262;2023-07-13T11:16:12;94137.94;;;36.58;24.08
9462;BME280;4769;42.660;23.262;2023-07-13T11:18:38;94129.97;;;37.25;23.51
9462;BME280;4769;42.660;23.262;2023-07-13T11:21:17;94128.97;;;37.82;23.96
9462;BME280;4769;42.660;23.262;2023-07-13T11:23:44;94131.44;;;38.07;23.69
9462;BME280;4769;42.660;23.262;2023-07-13T11:26:41;94128.75;;;38.03;23.99
9462;BME280;4769;42.660;23.262;2023-07-13T11:29:25;94123.06;;;38.17;23.48
9462;BME280;4769;42.660;23.262;2023-07-13T11:31:52;94119.44;;;38.24;23.64
9462;BME280;4769;42.660;23.262;2023-07-13T11:34:24;94116.56;;;37.67;24.05
9462;BME280;4769;42.660;23.262;2023-07-13T11:36:56;94126.94;;;37.56;23.64
9462;BME280;4769;42.660;23.262;2023-07-13T11:39:28;94116.28;;;37.58;24.76
9462;BME280;4769;42.660;23.262;2023-07-13T11:41:59;94122.66;;;37.85;24.06
9462;BME280;4769;42.660;23.262;2023-07-13T11:44:28;94111.94;;;37.61;24.55
9462;BME280;4769;42.660;23.262;2023-07-13T11:46:55;94117.44;;;37.94;22.96
9462;BME280;4769;42.660;23.262;2023-07-13T11:49:23;94114.31;;;38.22;22.50
9462;BME280;4769;42.660;23.262;2023-07-13T11:51:49;94099.22;;;38.34;21.93
9462;BME280;4769;42.660;23.262;2023-07-13T11:54:24;94100.91;;;38.54;22.46
9462;BME280;4769;42.660;23.262;2023-07-13T11:56:50;94113.16;;;38.50;22.28
9462;BME280;4769;42.660;23.262;2023-07-13T11:59:16;94097.47;;;38.17;22.02
9462;BME280;4769;42.660;23.262;2023-07-13T12:01:46;94095.59;;;38.10;22.65
9462;BME280;4769;42.660;23.262;2023-07-13T12:04:22;94091.81;;;37.97;22.59
9462;BME280;4769;42.660;23.262;2023-07-13T12:06:55;94088.47;;;38.39;22.83
9462;BME280;4769;42.660;23.262;2023-07-13T12:09:27;94091.56;;;38.45;22.58
9462;BME280;4769;42.660;23.262;2023-07-13T12:11:53;94085.19;;;38.51;22.83
9462;BME280;4769;42.660;23.262;2023-07-13T12:14:19;94082.34;;;38.02;23.85
9462;BME280;4769;42.660;23.262;2023-07-13T12:16:46;94082.38;;;38.55;23.29
9462;BME280;4769;42.660;23.262;2023-07-13T12:19:17;94073.53;;;38.67;22.68
9462;BME280;4769;42.660;23.262;2023-07-13T12:21:44;94081.94;;;38.30;22.77
9462;BME280;4769;42.660;23.262;2023-07-13T12:24:14;94071.66;;;37.74;24.28
9462;BME280;4769;42.660;23.262;2023-07-13T12:26:43;94065.56;;;38.72;22.68
9462;BME280;4769;42.660;23.262;2023-07-13T12:29:16;94062.63;;;39.06;22.64
9462;BME280;4769;42.660;23.262;2023-07-13T12:31:43;94084.72;;;39.49;21.82
9462;BME280;4769;42.660;23.262;2023-07-13T12:34:11;94059.44;;;39.08;22.03
9462;BME280;4769;42.660;23.262;2023-07-13T12:36:40;94055.47;;;38.62;22.55
9462;BME280;4769;42.660;23.262;2023-07-13T12:39:17;94058.34;;;39.25;22.64
9462;BME280;4769;42.660;23.262;2023-07-13T12:41:47;94043.53;;;38.46;22.42
9462;BME280;4769;42.660;23.262;2023-07-13T12:44:15;94053.78;;;38.95;20.73
9462;BME280;4769;42.660;23.262;2023-07-13T12:46:52;94030.94;;;40.12;20.69
9462;BME280;4769;42.660;23.262;2023-07-13T12:49:23;94045.34;;;40.03;20.49
9462;BME280;4769;42.660;23.262;2023-07-13T12:51:55;94043.22;;;40.62;19.96
9462;BME280;4769;42.660;23.262;2023-07-13T12:54:21;94041.34;;;40.75;19.92
9462;BME280;4769;42.660;23.262;2023-07-13T12:56:53;94034.69;;;39.66;19.93
9462;BME280;4769;42.660;23.262;2023-07-13T12:59:21;94043.25;;;39.72;20.47
9462;BME280;4769;42.660;23.262;2023-07-13T13:01:48;94032.31;;;40.55;19.82
9462;BME280;4769;42.660;23.262;2023-07-13T13:04:15;94022.78;;;41.20;19.49
9462;BME280;4769;42.660;23.262;2023-07-13T13:06:41;94019.72;;;40.70;19.91
9462;BME280;4769;42.660;23.262;2023-07-13T13:09:11;94021.81;;;39.79;20.57
9462;BME280;4769;42.660;23.262;2023-07-13T13:11:39;94016.25;;;39.21;21.53
9462;BME280;4769;42.660;23.262;2023-07-13T13:14:08;94019.25;;;39.69;20.88